Avondale, Texas
Current Conditions -  °F | °C
As of 11:52 AM on Thursday 23 Oct 2014 (Local Time) from KHRL Reporting Station
Clear Clear  
Wind Chill: 81°   Ceiling: Unl
Heat Index: 84°   Visibility: 10mi
Dew Point: 68°   Wind: 5mph
Humidity: 65%   Direction: 20°NNE
Pressure: 30.09"   Gusts: NA
Location:  26.2089°N, 97.6849°W
Report Text: KHRL 231652Z 02004KT 10SM CLR 27/20 A3009 RMK AO2 SLP189 T02720200
Loading
Personal Weather Stations






























Interactive Weather Map
Tropical Storm Tracking
New forecast layout! Learn more

10-Day Weather Forecast

Advertisements
Track Severe Weather on mobile